This is the latest recevied weather packets stored in our database for station/object EA2RCU-15. If no packets are shown the sender has not sent any weather packets the latest 10 day(s).
| Time | Temp. | Humidity | Pressure | Rain* | Wind** | Luminosity | Snow |
|---|---|---|---|---|---|---|---|
| 1787412004 | 38.89° C | 17% | 998 hPa | 0 mm | - | - | - |
| 1787411705 | 37.22° C | 18% | 998 hPa | 0 mm | - | - | - |
| 1787411405 | 36.11° C | 20% | 998 hPa | 0 mm | - | - | - |
| 1787411104 | 32.78° C | 27% | 998 hPa | 0 mm | - | - | - |
| 1787410804 | 30° C | 30% | 998 hPa | 0 mm | - | - | - |
| 1787410504 | 29.44° C | 30% | 998 hPa | 0 mm | - | - | - |
| 1787410204 | 29.44° C | 29% | 998 hPa | 0 mm | - | - | - |
| 1787409904 | 29.44° C | 30% | 998 hPa | 0 mm | - | - | - |
| 1787409604 | 29.44° C | 30% | 998 hPa | 0 mm | - | - | - |
| 1787409304 | 28.89° C | 30% | 998 hPa | 0 mm | - | - | - |
| 1787409004 | 28.89° C | 29% | 998 hPa | 0 mm | - | - | - |
| 1787408705 | 28.89° C | 30% | 998 hPa | 0 mm | - | - | - |
| 1787408404 | 28.33° C | 29% | 998 hPa | 0 mm | - | - | - |
| 1787408104 | 29.44° C | 29% | 998 hPa | 0 mm | - | - | - |
| 1787407804 | 29.44° C | 29% | 998 hPa | 0 mm | - | - | - |
| 1787407504 | 28.89° C | 29% | 998 hPa | 0 mm | - | - | - |
| 1787407204 | 28.89° C | 28% | 998 hPa | 0 mm | - | - | - |
| 1787406905 | 28.89° C | 29% | 998 hPa | 0 mm | - | - | - |
| 1787406604 | 28.89° C | 28% | 998 hPa | 0 mm | - | - | - |
| 1787406304 | 28.89° C | 29% | 998 hPa | 0 mm | - | - | - |
| 1787406005 | 28.89° C | 28% | 998 hPa | 0 mm | - | - | - |
| 1787405704 | 28.89° C | 29% | 998 hPa | 0 mm | - | - | - |
| 1787405404 | 28.33° C | 29% | 998 hPa | 0 mm | - | - | - |
| 1787405104 | 28.33° C | 29% | 998 hPa | 0 mm | - | - | - |
| 1787404804 | 27.78° C | 29% | 998 hPa | 0 mm | - | - | - |
* Rain latest hour (hover to see other rain measurements)
** Current wind speed in m/s (hover to see current wind gust speed)